sensor_id;sensor_type;location;lat;lon;timestamp;P1;durP1;ratioP1;P2;durP2;ratioP2
38529;SDS011;24301;54.332;48.386;2023-04-03T00:00:41;8.03;;;2.80;;
38529;SDS011;24301;54.332;48.386;2023-04-03T00:03:07;2.93;;;2.00;;
38529;SDS011;24301;54.332;48.386;2023-04-03T00:05:33;4.23;;;2.10;;
38529;SDS011;24301;54.332;48.386;2023-04-03T00:07:59;6.43;;;2.13;;
38529;SDS011;24301;54.332;48.386;2023-04-03T00:10:29;4.83;;;2.57;;
38529;SDS011;24301;54.332;48.386;2023-04-03T00:12:58;7.30;;;2.50;;
38529;SDS011;24301;54.332;48.386;2023-04-03T00:15:24;5.00;;;2.40;;
38529;SDS011;24301;54.332;48.386;2023-04-03T00:17:50;4.53;;;2.03;;
38529;SDS011;24301;54.332;48.386;2023-04-03T00:20:16;5.73;;;2.90;;
38529;SDS011;24301;54.332;48.386;2023-04-03T00:22:45;4.63;;;2.00;;
38529;SDS011;24301;54.332;48.386;2023-04-03T00:25:11;7.77;;;2.13;;
38529;SDS011;24301;54.332;48.386;2023-04-03T00:27:38;9.50;;;3.70;;
38529;SDS011;24301;54.332;48.386;2023-04-03T00:30:05;4.07;;;3.00;;
38529;SDS011;24301;54.332;48.386;2023-04-03T00:32:33;6.70;;;2.20;;
38529;SDS011;24301;54.332;48.386;2023-04-03T00:35:02;6.97;;;2.33;;
38529;SDS011;24301;54.332;48.386;2023-04-03T00:37:28;2.73;;;1.53;;
38529;SDS011;24301;54.332;48.386;2023-04-03T00:39:54;4.37;;;2.40;;
38529;SDS011;24301;54.332;48.386;2023-04-03T00:42:20;9.97;;;2.40;;
38529;SDS011;24301;54.332;48.386;2023-04-03T00:47:13;4.00;;;2.00;;
38529;SDS011;24301;54.332;48.386;2023-04-03T00:49:49;4.97;;;2.37;;
38529;SDS011;24301;54.332;48.386;2023-04-03T00:52:18;7.03;;;2.07;;
38529;SDS011;24301;54.332;48.386;2023-04-03T00:54:47;6.33;;;2.07;;
38529;SDS011;24301;54.332;48.386;2023-04-03T00:57:15;3.47;;;1.90;;
38529;SDS011;24301;54.332;48.386;2023-04-03T00:59:50;5.50;;;2.13;;
38529;SDS011;24301;54.332;48.386;2023-04-03T01:02:21;5.00;;;1.70;;
38529;SDS011;24301;54.332;48.386;2023-04-03T01:04:49;6.13;;;2.70;;
38529;SDS011;24301;54.332;48.386;2023-04-03T01:07:21;3.00;;;2.00;;
38529;SDS011;24301;54.332;48.386;2023-04-03T01:09:53;6.07;;;2.03;;
38529;SDS011;24301;54.332;48.386;2023-04-03T01:12:30;5.03;;;1.90;;
38529;SDS011;24301;54.332;48.386;2023-04-03T01:15:08;6.40;;;2.13;;
38529;SDS011;24301;54.332;48.386;2023-04-03T01:17:49;3.53;;;1.80;;
38529;SDS011;24301;54.332;48.386;2023-04-03T01:20:28;4.77;;;1.90;;
38529;SDS011;24301;54.332;48.386;2023-04-03T01:26:14;4.27;;;2.03;;
38529;SDS011;24301;54.332;48.386;2023-04-03T01:28:44;3.67;;;2.50;;
38529;SDS011;24301;54.332;48.386;2023-04-03T01:34:05;8.07;;;2.23;;
38529;SDS011;24301;54.332;48.386;2023-04-03T01:36:32;3.37;;;2.07;;
38529;SDS011;24301;54.332;48.386;2023-04-03T01:38:59;8.13;;;2.80;;
38529;SDS011;24301;54.332;48.386;2023-04-03T01:41:27;5.90;;;2.77;;
38529;SDS011;24301;54.332;48.386;2023-04-03T01:44:00;6.22;;;2.85;;
38529;SDS011;24301;54.332;48.386;2023-04-03T01:46:26;6.83;;;3.40;;
38529;SDS011;24301;54.332;48.386;2023-04-03T01:48:52;7.43;;;3.23;;
38529;SDS011;24301;54.332;48.386;2023-04-03T01:51:21;5.37;;;2.93;;
38529;SDS011;24301;54.332;48.386;2023-04-03T01:53:47;3.77;;;2.37;;
38529;SDS011;24301;54.332;48.386;2023-04-03T01:56:13;5.43;;;3.27;;
38529;SDS011;24301;54.332;48.386;2023-04-03T01:58:39;5.23;;;2.63;;
38529;SDS011;24301;54.332;48.386;2023-04-03T02:03:54;7.57;;;3.40;;
38529;SDS011;24301;54.332;48.386;2023-04-03T02:07:13;6.70;;;2.87;;
38529;SDS011;24301;54.332;48.386;2023-04-03T02:12:38;8.00;;;2.93;;
38529;SDS011;24301;54.332;48.386;2023-04-03T02:15:13;5.17;;;3.27;;
38529;SDS011;24301;54.332;48.386;2023-04-03T02:17:53;8.27;;;3.43;;
38529;SDS011;24301;54.332;48.386;2023-04-03T02:20:19;6.00;;;3.00;;
38529;SDS011;24301;54.332;48.386;2023-04-03T02:22:46;4.67;;;2.77;;
38529;SDS011;24301;54.332;48.386;2023-04-03T02:25:12;8.33;;;3.47;;
38529;SDS011;24301;54.332;48.386;2023-04-03T02:27:38;6.90;;;3.33;;
38529;SDS011;24301;54.332;48.386;2023-04-03T02:30:04;11.00;;;2.80;;
38529;SDS011;24301;54.332;48.386;2023-04-03T02:32:31;7.30;;;3.10;;
38529;SDS011;24301;54.332;48.386;2023-04-03T02:34:57;6.37;;;3.10;;
38529;SDS011;24301;54.332;48.386;2023-04-03T02:37:24;9.80;;;3.40;;
38529;SDS011;24301;54.332;48.386;2023-04-03T02:39:52;7.13;;;2.90;;
38529;SDS011;24301;54.332;48.386;2023-04-03T02:42:18;4.97;;;3.00;;
38529;SDS011;24301;54.332;48.386;2023-04-03T02:44:44;4.03;;;2.80;;
38529;SDS011;24301;54.332;48.386;2023-04-03T02:47:19;9.93;;;3.13;;
38529;SDS011;24301;54.332;48.386;2023-04-03T02:49:47;5.50;;;3.20;;
38529;SDS011;24301;54.332;48.386;2023-04-03T02:52:14;6.17;;;2.97;;
38529;SDS011;24301;54.332;48.386;2023-04-03T02:54:41;4.40;;;2.70;;
38529;SDS011;24301;54.332;48.386;2023-04-03T02:57:10;7.30;;;3.00;;
38529;SDS011;24301;54.332;48.386;2023-04-03T02:59:36;9.73;;;4.30;;
38529;SDS011;24301;54.332;48.386;2023-04-03T03:02:09;6.80;;;3.27;;
38529;SDS011;24301;54.332;48.386;2023-04-03T03:04:35;6.70;;;3.33;;
38529;SDS011;24301;54.332;48.386;2023-04-03T03:07:01;5.07;;;3.13;;
38529;SDS011;24301;54.332;48.386;2023-04-03T03:09:28;5.13;;;3.00;;
38529;SDS011;24301;54.332;48.386;2023-04-03T03:11:55;7.30;;;3.73;;
38529;SDS011;24301;54.332;48.386;2023-04-03T03:14:22;7.00;;;3.67;;
38529;SDS011;24301;54.332;48.386;2023-04-03T03:16:48;7.32;;;3.28;;
38529;SDS011;24301;54.332;48.386;2023-04-03T03:19:14;5.73;;;3.40;;
38529;SDS011;24301;54.332;48.386;2023-04-03T03:21:40;5.47;;;3.27;;
38529;SDS011;24301;54.332;48.386;2023-04-03T03:24:10;6.50;;;3.25;;
38529;SDS011;24301;54.332;48.386;2023-04-03T03:27:08;7.30;;;3.22;;
38529;SDS011;24301;54.332;48.386;2023-04-03T03:29:34;6.53;;;3.75;;
38529;SDS011;24301;54.332;48.386;2023-04-03T03:32:01;6.70;;;3.60;;
38529;SDS011;24301;54.332;48.386;2023-04-03T03:34:27;7.15;;;3.38;;
38529;SDS011;24301;54.332;48.386;2023-04-03T03:36:58;5.28;;;3.38;;
38529;SDS011;24301;54.332;48.386;2023-04-03T03:39:29;9.40;;;3.65;;
38529;SDS011;24301;54.332;48.386;2023-04-03T03:41:58;7.82;;;4.10;;
38529;SDS011;24301;54.332;48.386;2023-04-03T03:44:24;9.15;;;3.95;;
38529;SDS011;24301;54.332;48.386;2023-04-03T03:46:50;5.72;;;3.40;;
38529;SDS011;24301;54.332;48.386;2023-04-03T03:49:17;5.63;;;3.15;;
38529;SDS011;24301;54.332;48.386;2023-04-03T03:51:43;5.93;;;3.15;;
38529;SDS011;24301;54.332;48.386;2023-04-03T03:54:12;6.53;;;2.65;;
38529;SDS011;24301;54.332;48.386;2023-04-03T03:56:40;6.22;;;3.47;;
38529;SDS011;24301;54.332;48.386;2023-04-03T03:59:08;4.70;;;3.08;;
38529;SDS011;24301;54.332;48.386;2023-04-03T04:01:34;4.40;;;2.53;;
38529;SDS011;24301;54.332;48.386;2023-04-03T04:04:00;6.20;;;2.55;;
38529;SDS011;24301;54.332;48.386;2023-04-03T04:06:29;5.70;;;2.90;;
38529;SDS011;24301;54.332;48.386;2023-04-03T04:08:59;4.10;;;2.30;;
38529;SDS011;24301;54.332;48.386;2023-04-03T04:11:25;5.25;;;3.17;;
38529;SDS011;24301;54.332;48.386;2023-04-03T04:13:56;8.25;;;2.90;;
38529;SDS011;24301;54.332;48.386;2023-04-03T04:16:25;6.50;;;2.40;;
38529;SDS011;24301;54.332;48.386;2023-04-03T04:18:52;5.60;;;2.45;;
38529;SDS011;24301;54.332;48.386;2023-04-03T04:21:19;4.97;;;1.88;;
38529;SDS011;24301;54.332;48.386;2023-04-03T04:23:46;5.47;;;2.10;;
38529;SDS011;24301;54.332;48.386;2023-04-03T04:26:13;4.70;;;2.03;;
38529;SDS011;24301;54.332;48.386;2023-04-03T04:28:39;4.28;;;2.50;;
38529;SDS011;24301;54.332;48.386;2023-04-03T04:31:06;9.00;;;1.92;;
38529;SDS011;24301;54.332;48.386;2023-04-03T04:33:32;4.65;;;2.03;;
38529;SDS011;24301;54.332;48.386;2023-04-03T04:36:01;4.05;;;2.15;;
38529;SDS011;24301;54.332;48.386;2023-04-03T04:38:27;3.88;;;1.70;;
38529;SDS011;24301;54.332;48.386;2023-04-03T04:40:53;4.80;;;1.83;;
38529;SDS011;24301;54.332;48.386;2023-04-03T04:43:20;4.15;;;1.95;;
38529;SDS011;24301;54.332;48.386;2023-04-03T04:45:57;4.20;;;1.98;;
38529;SDS011;24301;54.332;48.386;2023-04-03T04:48:34;5.28;;;2.45;;
38529;SDS011;24301;54.332;48.386;2023-04-03T04:51:01;3.55;;;2.20;;
38529;SDS011;24301;54.332;48.386;2023-04-03T04:53:27;3.70;;;2.25;;
38529;SDS011;24301;54.332;48.386;2023-04-03T04:55:53;3.40;;;2.40;;
38529;SDS011;24301;54.332;48.386;2023-04-03T04:58:20;4.55;;;2.00;;
38529;SDS011;24301;54.332;48.386;2023-04-03T05:00:46;4.75;;;2.10;;
38529;SDS011;24301;54.332;48.386;2023-04-03T05:03:13;2.85;;;1.88;;
38529;SDS011;24301;54.332;48.386;2023-04-03T05:05:39;3.22;;;1.77;;
38529;SDS011;24301;54.332;48.386;2023-04-03T05:08:05;4.03;;;2.35;;
38529;SDS011;24301;54.332;48.386;2023-04-03T05:10:31;6.75;;;2.42;;
38529;SDS011;24301;54.332;48.386;2023-04-03T05:12:57;6.82;;;3.13;;
38529;SDS011;24301;54.332;48.386;2023-04-03T05:15:23;8.43;;;3.30;;
38529;SDS011;24301;54.332;48.386;2023-04-03T05:17:49;3.08;;;1.80;;
38529;SDS011;24301;54.332;48.386;2023-04-03T05:20:16;4.82;;;2.33;;
38529;SDS011;24301;54.332;48.386;2023-04-03T05:22:44;5.10;;;2.20;;
38529;SDS011;24301;54.332;48.386;2023-04-03T05:25:10;7.28;;;2.75;;
38529;SDS011;24301;54.332;48.386;2023-04-03T05:27:37;3.80;;;2.20;;
38529;SDS011;24301;54.332;48.386;2023-04-03T05:30:03;6.35;;;2.65;;
38529;SDS011;24301;54.332;48.386;2023-04-03T05:32:31;4.72;;;2.33;;
38529;SDS011;24301;54.332;48.386;2023-04-03T05:35:11;4.05;;;2.20;;
38529;SDS011;24301;54.332;48.386;2023-04-03T05:37:39;4.20;;;2.03;;
38529;SDS011;24301;54.332;48.386;2023-04-03T05:40:06;6.22;;;2.53;;
38529;SDS011;24301;54.332;48.386;2023-04-03T05:42:34;5.28;;;2.63;;
38529;SDS011;24301;54.332;48.386;2023-04-03T05:45:00;5.28;;;2.40;;
38529;SDS011;24301;54.332;48.386;2023-04-03T05:47:25;4.40;;;1.90;;
38529;SDS011;24301;54.332;48.386;2023-04-03T05:49:52;4.38;;;1.67;;
38529;SDS011;24301;54.332;48.386;2023-04-03T05:54:47;5.75;;;2.10;;
38529;SDS011;24301;54.332;48.386;2023-04-03T05:57:18;4.50;;;2.30;;
38529;SDS011;24301;54.332;48.386;2023-04-03T05:59:45;4.90;;;2.63;;
38529;SDS011;24301;54.332;48.386;2023-04-03T06:02:21;5.22;;;2.50;;
38529;SDS011;24301;54.332;48.386;2023-04-03T06:04:51;7.07;;;2.80;;
38529;SDS011;24301;54.332;48.386;2023-04-03T06:07:19;5.95;;;2.97;;
38529;SDS011;24301;54.332;48.386;2023-04-03T06:09:50;5.63;;;3.17;;
38529;SDS011;24301;54.332;48.386;2023-04-03T06:12:17;5.45;;;2.85;;
38529;SDS011;24301;54.332;48.386;2023-04-03T06:14:44;10.38;;;3.47;;
38529;SDS011;24301;54.332;48.386;2023-04-03T06:17:10;6.18;;;2.55;;
38529;SDS011;24301;54.332;48.386;2023-04-03T06:19:37;6.57;;;2.92;;
38529;SDS011;24301;54.332;48.386;2023-04-03T06:22:03;6.38;;;2.83;;
38529;SDS011;24301;54.332;48.386;2023-04-03T06:24:30;8.15;;;3.03;;
38529;SDS011;24301;54.332;48.386;2023-04-03T06:26:56;6.15;;;2.90;;
38529;SDS011;24301;54.332;48.386;2023-04-03T06:29:22;5.18;;;3.03;;
38529;SDS011;24301;54.332;48.386;2023-04-03T06:31:49;4.82;;;2.50;;
38529;SDS011;24301;54.332;48.386;2023-04-03T06:34:15;5.43;;;3.00;;
38529;SDS011;24301;54.332;48.386;2023-04-03T06:36:42;5.05;;;2.35;;
38529;SDS011;24301;54.332;48.386;2023-04-03T06:39:09;5.25;;;2.65;;
38529;SDS011;24301;54.332;48.386;2023-04-03T06:41:42;4.32;;;2.20;;
38529;SDS011;24301;54.332;48.386;2023-04-03T06:44:08;4.75;;;2.20;;
38529;SDS011;24301;54.332;48.386;2023-04-03T06:46:37;5.45;;;2.42;;
38529;SDS011;24301;54.332;48.386;2023-04-03T06:49:03;4.18;;;2.50;;
38529;SDS011;24301;54.332;48.386;2023-04-03T06:51:33;6.80;;;2.17;;
38529;SDS011;24301;54.332;48.386;2023-04-03T06:53:59;7.45;;;2.33;;
38529;SDS011;24301;54.332;48.386;2023-04-03T06:56:26;5.80;;;2.50;;
38529;SDS011;24301;54.332;48.386;2023-04-03T06:58:53;5.82;;;2.40;;
38529;SDS011;24301;54.332;48.386;2023-04-03T07:01:20;6.80;;;2.28;;
38529;SDS011;24301;54.332;48.386;2023-04-03T07:03:47;3.72;;;2.17;;
38529;SDS011;24301;54.332;48.386;2023-04-03T07:06:14;7.35;;;2.60;;
38529;SDS011;24301;54.332;48.386;2023-04-03T07:08:41;3.03;;;1.80;;
38529;SDS011;24301;54.332;48.386;2023-04-03T07:11:08;6.68;;;2.78;;
38529;SDS011;24301;54.332;48.386;2023-04-03T07:13:35;6.05;;;2.30;;
38529;SDS011;24301;54.332;48.386;2023-04-03T07:16:01;4.15;;;2.13;;
38529;SDS011;24301;54.332;48.386;2023-04-03T07:18:30;5.80;;;2.38;;
38529;SDS011;24301;54.332;48.386;2023-04-03T07:21:00;7.90;;;3.15;;
38529;SDS011;24301;54.332;48.386;2023-04-03T07:23:26;8.38;;;3.95;;
38529;SDS011;24301;54.332;48.386;2023-04-03T07:25:52;7.05;;;3.00;;
38529;SDS011;24301;54.332;48.386;2023-04-03T07:28:19;7.75;;;3.03;;
38529;SDS011;24301;54.332;48.386;2023-04-03T07:30:48;8.65;;;3.20;;
38529;SDS011;24301;54.332;48.386;2023-04-03T07:33:16;8.45;;;3.00;;
38529;SDS011;24301;54.332;48.386;2023-04-03T07:35:43;8.00;;;3.50;;
38529;SDS011;24301;54.332;48.386;2023-04-03T07:38:09;8.95;;;2.85;;
38529;SDS011;24301;54.332;48.386;2023-04-03T07:40:36;6.70;;;2.70;;
38529;SDS011;24301;54.332;48.386;2023-04-03T07:43:03;10.40;;;2.75;;
38529;SDS011;24301;54.332;48.386;2023-04-03T07:45:30;6.80;;;2.63;;
38529;SDS011;24301;54.332;48.386;2023-04-03T07:47:57;9.88;;;2.78;;
38529;SDS011;24301;54.332;48.386;2023-04-03T07:50:23;9.10;;;3.10;;
38529;SDS011;24301;54.332;48.386;2023-04-03T07:52:49;7.43;;;2.47;;
38529;SDS011;24301;54.332;48.386;2023-04-03T07:55:16;6.95;;;2.83;;
38529;SDS011;24301;54.332;48.386;2023-04-03T07:57:42;7.95;;;3.17;;
38529;SDS011;24301;54.332;48.386;2023-04-03T08:00:08;7.38;;;3.40;;
38529;SDS011;24301;54.332;48.386;2023-04-03T08:02:37;10.45;;;3.00;;
38529;SDS011;24301;54.332;48.386;2023-04-03T08:05:03;5.30;;;2.35;;
38529;SDS011;24301;54.332;48.386;2023-04-03T08:07:30;7.22;;;2.92;;
38529;SDS011;24301;54.332;48.386;2023-04-03T08:09:56;8.07;;;2.92;;
38529;SDS011;24301;54.332;48.386;2023-04-03T08:12:22;9.40;;;3.08;;
38529;SDS011;24301;54.332;48.386;2023-04-03T08:14:48;8.57;;;3.38;;
38529;SDS011;24301;54.332;48.386;2023-04-03T08:17:14;5.00;;;2.70;;
38529;SDS011;24301;54.332;48.386;2023-04-03T08:19:40;9.90;;;3.30;;
38529;SDS011;24301;54.332;48.386;2023-04-03T08:22:06;9.50;;;3.50;;
38529;SDS011;24301;54.332;48.386;2023-04-03T08:24:32;9.23;;;3.08;;
38529;SDS011;24301;54.332;48.386;2023-04-03T08:26:59;8.43;;;2.85;;
38529;SDS011;24301;54.332;48.386;2023-04-03T08:29:26;7.78;;;2.95;;
38529;SDS011;24301;54.332;48.386;2023-04-03T08:31:52;10.85;;;3.38;;
38529;SDS011;24301;54.332;48.386;2023-04-03T08:34:18;6.95;;;3.08;;
38529;SDS011;24301;54.332;48.386;2023-04-03T08:36:45;9.95;;;3.85;;
38529;SDS011;24301;54.332;48.386;2023-04-03T08:39:11;6.93;;;3.13;;
38529;SDS011;24301;54.332;48.386;2023-04-03T08:41:41;5.28;;;3.05;;
38529;SDS011;24301;54.332;48.386;2023-04-03T08:44:36;10.23;;;2.95;;
38529;SDS011;24301;54.332;48.386;2023-04-03T08:49:47;5.60;;;2.97;;
38529;SDS011;24301;54.332;48.386;2023-04-03T08:52:20;8.90;;;2.63;;
38529;SDS011;24301;54.332;48.386;2023-04-03T08:54:57;6.03;;;2.67;;
38529;SDS011;24301;54.332;48.386;2023-04-03T08:57:36;7.82;;;2.80;;
38529;SDS011;24301;54.332;48.386;2023-04-03T09:05:12;3.85;;;2.00;;
38529;SDS011;24301;54.332;48.386;2023-04-03T09:07:50;7.53;;;2.25;;
38529;SDS011;24301;54.332;48.386;2023-04-03T09:10:24;9.23;;;3.38;;
38529;SDS011;24301;54.332;48.386;2023-04-03T09:13:20;4.32;;;2.13;;
38529;SDS011;24301;54.332;48.386;2023-04-03T09:15:59;11.80;;;2.67;;
38529;SDS011;24301;54.332;48.386;2023-04-03T09:18:37;13.75;;;2.75;;
38529;SDS011;24301;54.332;48.386;2023-04-03T09:23:55;4.72;;;2.33;;
38529;SDS011;24301;54.332;48.386;2023-04-03T09:29:29;9.18;;;2.50;;
38529;SDS011;24301;54.332;48.386;2023-04-03T09:31:56;9.98;;;2.75;;
38529;SDS011;24301;54.332;48.386;2023-04-03T09:34:30;3.88;;;2.38;;
38529;SDS011;24301;54.332;48.386;2023-04-03T09:36:58;9.70;;;3.10;;
38529;SDS011;24301;54.332;48.386;2023-04-03T09:42:05;4.95;;;2.50;;
38529;SDS011;24301;54.332;48.386;2023-04-03T09:44:44;8.32;;;2.75;;
38529;SDS011;24301;54.332;48.386;2023-04-03T09:49:51;6.43;;;2.30;;
38529;SDS011;24301;54.332;48.386;2023-04-03T09:55:07;6.53;;;2.30;;
38529;SDS011;24301;54.332;48.386;2023-04-03T09:57:38;7.50;;;2.83;;
38529;SDS011;24301;54.332;48.386;2023-04-03T10:00:05;7.53;;;2.50;;
38529;SDS011;24301;54.332;48.386;2023-04-03T10:02:44;7.68;;;3.25;;
38529;SDS011;24301;54.332;48.386;2023-04-03T10:05:26;7.88;;;2.30;;
38529;SDS011;24301;54.332;48.386;2023-04-03T10:08:05;8.20;;;2.58;;
38529;SDS011;24301;54.332;48.386;2023-04-03T10:13:35;5.65;;;2.60;;
38529;SDS011;24301;54.332;48.386;2023-04-03T10:16:11;3.22;;;1.90;;
38529;SDS011;24301;54.332;48.386;2023-04-03T10:18:42;9.20;;;3.20;;
38529;SDS011;24301;54.332;48.386;2023-04-03T10:24:19;8.02;;;2.90;;
38529;SDS011;24301;54.332;48.386;2023-04-03T10:26:59;11.10;;;2.97;;
38529;SDS011;24301;54.332;48.386;2023-04-03T10:35:16;9.98;;;2.83;;
38529;SDS011;24301;54.332;48.386;2023-04-03T10:38:01;14.93;;;3.25;;
38529;SDS011;24301;54.332;48.386;2023-04-03T10:43:36;6.15;;;2.83;;
38529;SDS011;24301;54.332;48.386;2023-04-03T10:48:55;9.48;;;2.35;;
38529;SDS011;24301;54.332;48.386;2023-04-03T10:51:43;12.48;;;2.53;;
38529;SDS011;24301;54.332;48.386;2023-04-03T10:54:18;13.38;;;3.05;;
38529;SDS011;24301;54.332;48.386;2023-04-03T10:56:48;12.30;;;2.42;;
38529;SDS011;24301;54.332;48.386;2023-04-03T10:59:20;9.88;;;2.67;;
38529;SDS011;24301;54.332;48.386;2023-04-03T11:01:49;17.73;;;2.70;;
38529;SDS011;24301;54.332;48.386;2023-04-03T11:04:20;12.18;;;2.75;;
38529;SDS011;24301;54.332;48.386;2023-04-03T11:06:50;10.35;;;2.05;;
38529;SDS011;24301;54.332;48.386;2023-04-03T11:12:15;6.65;;;2.05;;
38529;SDS011;24301;54.332;48.386;2023-04-03T11:14:47;7.03;;;2.15;;
38529;SDS011;24301;54.332;48.386;2023-04-03T11:19:45;12.80;;;2.08;;
38529;SDS011;24301;54.332;48.386;2023-04-03T11:22:41;9.05;;;2.03;;
38529;SDS011;24301;54.332;48.386;2023-04-03T11:33:15;11.60;;;2.53;;
38529;SDS011;24301;54.332;48.386;2023-04-03T11:35:53;3.53;;;1.88;;
38529;SDS011;24301;54.332;48.386;2023-04-03T11:38:26;9.75;;;2.50;;
38529;SDS011;24301;54.332;48.386;2023-04-03T11:41:02;7.15;;;2.22;;
38529;SDS011;24301;54.332;48.386;2023-04-03T11:43:30;12.57;;;2.55;;
38529;SDS011;24301;54.332;48.386;2023-04-03T11:53:41;5.68;;;2.30;;
38529;SDS011;24301;54.332;48.386;2023-04-03T11:56:50;16.25;;;2.83;;
38529;SDS011;24301;54.332;48.386;2023-04-03T12:01:43;12.20;;;3.47;;
38529;SDS011;24301;54.332;48.386;2023-04-03T12:04:21;10.65;;;3.33;;
38529;SDS011;24301;54.332;48.386;2023-04-03T12:06:51;14.13;;;3.25;;
38529;SDS011;24301;54.332;48.386;2023-04-03T12:09:30;9.43;;;2.80;;
38529;SDS011;24301;54.332;48.386;2023-04-03T12:17:45;12.40;;;2.20;;
38529;SDS011;24301;54.332;48.386;2023-04-03T12:20:58;9.07;;;2.50;;
38529;SDS011;24301;54.332;48.386;2023-04-03T12:23:33;9.98;;;2.20;;
38529;SDS011;24301;54.332;48.386;2023-04-03T12:26:05;9.52;;;2.80;;
38529;SDS011;24301;54.332;48.386;2023-04-03T12:28:47;9.38;;;2.53;;
38529;SDS011;24301;54.332;48.386;2023-04-03T12:31:16;8.77;;;2.20;;
38529;SDS011;24301;54.332;48.386;2023-04-03T12:33:51;11.98;;;2.83;;
38529;SDS011;24301;54.332;48.386;2023-04-03T12:36:47;7.05;;;2.60;;
38529;SDS011;24301;54.332;48.386;2023-04-03T12:39:33;10.88;;;2.80;;
38529;SDS011;24301;54.332;48.386;2023-04-03T12:45:22;8.98;;;2.60;;
38529;SDS011;24301;54.332;48.386;2023-04-03T12:47:50;8.40;;;2.78;;
38529;SDS011;24301;54.332;48.386;2023-04-03T12:50:21;9.13;;;2.97;;
38529;SDS011;24301;54.332;48.386;2023-04-03T12:56:18;9.38;;;3.05;;
38529;SDS011;24301;54.332;48.386;2023-04-03T12:58:52;13.73;;;4.00;;
38529;SDS011;24301;54.332;48.386;2023-04-03T13:01:24;11.25;;;2.67;;
38529;SDS011;24301;54.332;48.386;2023-04-03T13:03:57;11.13;;;2.47;;
38529;SDS011;24301;54.332;48.386;2023-04-03T13:06:28;7.32;;;2.50;;
38529;SDS011;24301;54.332;48.386;2023-04-03T13:08:58;13.68;;;2.70;;
38529;SDS011;24301;54.332;48.386;2023-04-03T13:11:47;10.77;;;2.78;;
38529;SDS011;24301;54.332;48.386;2023-04-03T13:14:20;12.80;;;2.38;;
38529;SDS011;24301;54.332;48.386;2023-04-03T13:16:58;9.00;;;2.78;;
38529;SDS011;24301;54.332;48.386;2023-04-03T13:19:29;15.90;;;2.83;;
38529;SDS011;24301;54.332;48.386;2023-04-03T13:21:58;12.85;;;2.95;;
38529;SDS011;24301;54.332;48.386;2023-04-03T13:24:29;11.30;;;3.00;;
38529;SDS011;24301;54.332;48.386;2023-04-03T13:26:59;11.25;;;2.85;;
38529;SDS011;24301;54.332;48.386;2023-04-03T13:29:36;10.52;;;2.88;;
38529;SDS011;24301;54.332;48.386;2023-04-03T13:32:03;10.25;;;2.90;;
38529;SDS011;24301;54.332;48.386;2023-04-03T13:34:40;10.05;;;3.38;;
38529;SDS011;24301;54.332;48.386;2023-04-03T13:37:18;10.50;;;2.38;;
38529;SDS011;24301;54.332;48.386;2023-04-03T13:40:23;17.42;;;2.72;;
38529;SDS011;24301;54.332;48.386;2023-04-03T13:42:42;13.63;;;2.80;;
38529;SDS011;24301;54.332;48.386;2023-04-03T13:47:44;12.05;;;3.28;;
38529;SDS011;24301;54.332;48.386;2023-04-03T13:52:41;8.25;;;2.20;;
38529;SDS011;24301;54.332;48.386;2023-04-03T13:55:29;12.45;;;2.88;;
38529;SDS011;24301;54.332;48.386;2023-04-03T13:58:01;16.42;;;2.53;;
38529;SDS011;24301;54.332;48.386;2023-04-03T14:05:49;15.10;;;2.58;;
38529;SDS011;24301;54.332;48.386;2023-04-03T14:08:15;11.73;;;3.45;;
38529;SDS011;24301;54.332;48.386;2023-04-03T14:10:42;21.13;;;2.65;;
38529;SDS011;24301;54.332;48.386;2023-04-03T14:13:11;9.40;;;2.38;;
38529;SDS011;24301;54.332;48.386;2023-04-03T14:15:39;16.00;;;2.85;;
38529;SDS011;24301;54.332;48.386;2023-04-03T14:18:06;24.45;;;4.22;;
38529;SDS011;24301;54.332;48.386;2023-04-03T14:20:32;16.52;;;2.78;;
38529;SDS011;24301;54.332;48.386;2023-04-03T14:22:57;12.43;;;3.40;;
38529;SDS011;24301;54.332;48.386;2023-04-03T14:25:23;15.10;;;2.80;;
38529;SDS011;24301;54.332;48.386;2023-04-03T14:27:51;7.03;;;2.40;;
38529;SDS011;24301;54.332;48.386;2023-04-03T14:30:22;19.58;;;3.67;;
38529;SDS011;24301;54.332;48.386;2023-04-03T14:32:48;11.75;;;2.70;;
38529;SDS011;24301;54.332;48.386;2023-04-03T14:35:15;11.55;;;3.00;;
38529;SDS011;24301;54.332;48.386;2023-04-03T14:37:42;9.60;;;2.67;;
38529;SDS011;24301;54.332;48.386;2023-04-03T14:40:11;17.90;;;3.33;;
38529;SDS011;24301;54.332;48.386;2023-04-03T14:42:40;21.50;;;2.80;;
38529;SDS011;24301;54.332;48.386;2023-04-03T14:45:07;17.42;;;2.70;;
38529;SDS011;24301;54.332;48.386;2023-04-03T14:47:37;21.92;;;2.97;;
38529;SDS011;24301;54.332;48.386;2023-04-03T14:50:08;12.13;;;3.70;;
38529;SDS011;24301;54.332;48.386;2023-04-03T14:52:38;15.63;;;2.63;;
38529;SDS011;24301;54.332;48.386;2023-04-03T14:55:04;13.50;;;3.42;;
38529;SDS011;24301;54.332;48.386;2023-04-03T14:57:31;9.23;;;2.60;;
38529;SDS011;24301;54.332;48.386;2023-04-03T14:59:58;11.77;;;3.03;;
38529;SDS011;24301;54.332;48.386;2023-04-03T15:02:25;9.32;;;2.40;;
38529;SDS011;24301;54.332;48.386;2023-04-03T15:05:00;14.48;;;2.72;;
38529;SDS011;24301;54.332;48.386;2023-04-03T15:07:30;19.00;;;2.88;;
38529;SDS011;24301;54.332;48.386;2023-04-03T15:10:05;15.02;;;2.72;;
38529;SDS011;24301;54.332;48.386;2023-04-03T15:12:49;17.73;;;3.20;;
38529;SDS011;24301;54.332;48.386;2023-04-03T15:15:16;19.00;;;4.05;;
38529;SDS011;24301;54.332;48.386;2023-04-03T15:17:45;22.58;;;4.72;;
38529;SDS011;24301;54.332;48.386;2023-04-03T15:20:17;17.90;;;3.22;;
38529;SDS011;24301;54.332;48.386;2023-04-03T15:22:44;16.58;;;3.60;;
38529;SDS011;24301;54.332;48.386;2023-04-03T15:25:11;9.65;;;3.30;;
38529;SDS011;24301;54.332;48.386;2023-04-03T15:27:38;12.63;;;3.50;;
38529;SDS011;24301;54.332;48.386;2023-04-03T15:30:06;13.68;;;3.60;;
38529;SDS011;24301;54.332;48.386;2023-04-03T15:32:34;14.80;;;4.13;;
38529;SDS011;24301;54.332;48.386;2023-04-03T15:35:00;13.68;;;3.30;;
38529;SDS011;24301;54.332;48.386;2023-04-03T15:37:28;17.92;;;3.95;;
38529;SDS011;24301;54.332;48.386;2023-04-03T15:39:55;9.57;;;2.50;;
38529;SDS011;24301;54.332;48.386;2023-04-03T15:42:21;11.05;;;3.63;;
38529;SDS011;24301;54.332;48.386;2023-04-03T15:44:47;17.10;;;3.83;;
38529;SDS011;24301;54.332;48.386;2023-04-03T15:47:13;13.90;;;3.22;;
38529;SDS011;24301;54.332;48.386;2023-04-03T15:49:39;11.90;;;4.32;;
38529;SDS011;24301;54.332;48.386;2023-04-03T15:52:05;14.63;;;3.50;;
38529;SDS011;24301;54.332;48.386;2023-04-03T15:54:31;9.68;;;2.67;;
38529;SDS011;24301;54.332;48.386;2023-04-03T15:56:57;22.52;;;4.22;;
38529;SDS011;24301;54.332;48.386;2023-04-03T15:59:23;22.48;;;5.18;;
38529;SDS011;24301;54.332;48.386;2023-04-03T16:01:49;19.33;;;5.07;;
38529;SDS011;24301;54.332;48.386;2023-04-03T16:04:17;17.05;;;4.45;;
38529;SDS011;24301;54.332;48.386;2023-04-03T16:06:43;17.17;;;3.60;;
38529;SDS011;24301;54.332;48.386;2023-04-03T16:09:10;13.50;;;3.75;;
38529;SDS011;24301;54.332;48.386;2023-04-03T16:11:36;12.30;;;3.50;;
38529;SDS011;24301;54.332;48.386;2023-04-03T16:14:04;14.68;;;3.90;;
38529;SDS011;24301;54.332;48.386;2023-04-03T16:16:31;24.27;;;4.82;;
38529;SDS011;24301;54.332;48.386;2023-04-03T16:18:57;16.05;;;4.70;;
38529;SDS011;24301;54.332;48.386;2023-04-03T16:21:23;27.90;;;5.38;;
38529;SDS011;24301;54.332;48.386;2023-04-03T16:23:50;13.40;;;3.42;;
38529;SDS011;24301;54.332;48.386;2023-04-03T16:26:16;13.32;;;4.55;;
38529;SDS011;24301;54.332;48.386;2023-04-03T16:28:43;14.30;;;3.28;;